Decoded Metar for LFSN (NANCY ESSEY in FRANCE) (IATA:ENC) | Meteo·Mobile Aviation Weather
aviador You're here:

LFSN Decoded Metar

NANCY ESSEY in FRANCE
Report Time2018-12-16 16:30:00
UTC Time2018-12-16 17:01:56
Flight Rules mvfr MVFR
Wind150° at 06 kt
W.Decomp.*RWY 21: 3.0 kt HW 5.2 kt LCW
W.Rank150° ranks 28
Current wind is above 150° avg. (3.8)
Visibility9999 m
Phenomena:N/A
Clouds:Overcast 012 Hf
Expected CloudBase > 400 ft AGL from Temp-Dew spread
Ceiling1,200 ft
Temp05°C (ISA -9)
Dew Point04°C (93% RH)
AAT1.5°C
QNH1013 hPa
Density Alt-210 ft
Elevation712 ft
Report Wrong Elevation
Raw Report
LFSN 161630Z AUTO 15006KT 9999 OVC012 05/04 Q1013=

Extra information for LFSN:More info

Metar Taf Metar & Taf Last 4 Metars F.Rules Stats Wind Profile Meteogram Temp Stats Airport Information Weather charts Add Link Nearby VenuesMetar ALERT Operation Metar Decoded Social comments